Impacts TAF Board
For situational awareness. Not to be used for flight planning purposes.
IDs:

KPDX - Portland Intl Arpt, OR, US

Issued at 1137 UTC 17 Dec 2018
Updated at 1147 UTC 17 Dec 2018
Potential Impact None Slight Moderate High
Time1134Z 17/12Z 17/13Z 17/14Z 17/15Z 17/16Z 17/17Z 17/18Z 17/19Z 17/20Z 17/21Z 17/22Z 17/23Z 18/00Z>>
Type OBS PRVL PRVL PRVL PRVL PRVL PRVL PRVL PRVL PRVL PRVL PRVL PRVL PRVL
VIS 10 >6 >6 >6 >6 >6 >6 >6 >6 >6 >6 >6 >6 >6
CIG 27 60 60 60 60 60 60 100 100 100 100 50 50 40
Cover OVC BKN BKN BKN BKN BKN BKN BKN BKN BKN BKN OVC OVC OVC
FltCat MVFR VFR VFR VFR VFR VFR VFR VFR VFR VFR VFR VFR VFR VFR
WX -RA VCSH VCSH VCSH VCSH VCSH VCSH -- -- -- -- -- -- -RA
WDir 60 140 140 140 140 140 140 130 130 130 130 120 120 120
WSpd 3 7 7 7 7 7 7 11 11 11 11 12 12 15
WGst -- -- -- -- -- -- -- -- -- -- -- -- -- 23
Raw TAF
KPDX 171137Z 1712/1812 14007KT P6SM VCSH SCT040 BKN060
  FM171800 13011KT P6SM SCT050 BKN100
  FM172200 12012KT P6SM BKN050 OVC100 WS020/20030KT
  FM180000 12015G23KT P6SM -RA BKN040 OVC070 WS020/20035KT
  FM180800 18020G33KT 4SM RA BR BKN025 OVC040


Raw METAR
KPDX 171134Z 06003KT 10SM -RA BKN027 BKN036 OVC047 08/07 A3001 RMK AO2 RAB19 P0000 T00780067
KPDX 171053Z 13004KT 10SM SCT055 OVC060 08/07 A3000 RMK AO2 SLP157 T00780067
KPDX 170953Z 11008KT 10SM SCT040 BKN055 08/07 A2998 RMK AO2 SLP150 T00780067
KPDX 170853Z 12007KT 10SM FEW044 BKN055 BKN070 08/07 A2997 RMK AO2 RAB07E16 SLP147 P0000 60000 T00830067 51012

METAR Board
Radar Display
Forecast Discussion
For situational awareness. Not to be used for flight planning purposes.